sensor_id;sensor_type;location;lat;lon;timestamp;P1;durP1;ratioP1;P2;durP2;ratioP2
938;SDS011;456;53.584;9.968;2024-03-08T00:00:58;8.53;;;7.83;;
938;SDS011;456;53.584;9.968;2024-03-08T00:03:24;8.87;;;8.00;;
938;SDS011;456;53.584;9.968;2024-03-08T00:05:49;8.30;;;7.60;;
938;SDS011;456;53.584;9.968;2024-03-08T00:08:15;9.00;;;7.70;;
938;SDS011;456;53.584;9.968;2024-03-08T00:10:40;7.73;;;7.03;;
938;SDS011;456;53.584;9.968;2024-03-08T00:13:06;8.73;;;7.83;;
938;SDS011;456;53.584;9.968;2024-03-08T00:15:31;8.70;;;7.90;;
938;SDS011;456;53.584;9.968;2024-03-08T00:17:57;8.97;;;8.07;;
938;SDS011;456;53.584;9.968;2024-03-08T00:20:23;7.93;;;7.23;;
938;SDS011;456;53.584;9.968;2024-03-08T00:22:48;7.80;;;7.10;;
938;SDS011;456;53.584;9.968;2024-03-08T00:25:14;8.03;;;7.20;;
938;SDS011;456;53.584;9.968;2024-03-08T00:27:40;8.10;;;7.30;;
938;SDS011;456;53.584;9.968;2024-03-08T00:30:08;8.10;;;7.40;;
938;SDS011;456;53.584;9.968;2024-03-08T00:32:34;8.53;;;7.00;;
938;SDS011;456;53.584;9.968;2024-03-08T00:35:01;7.70;;;7.00;;
938;SDS011;456;53.584;9.968;2024-03-08T00:37:26;9.13;;;8.23;;
938;SDS011;456;53.584;9.968;2024-03-08T00:39:52;7.40;;;6.73;;
938;SDS011;456;53.584;9.968;2024-03-08T00:42:18;8.20;;;7.40;;
938;SDS011;456;53.584;9.968;2024-03-08T00:44:44;8.63;;;7.83;;
938;SDS011;456;53.584;9.968;2024-03-08T00:47:10;8.70;;;7.80;;
938;SDS011;456;53.584;9.968;2024-03-08T00:49:36;8.73;;;7.93;;
938;SDS011;456;53.584;9.968;2024-03-08T00:52:03;9.77;;;8.77;;
938;SDS011;456;53.584;9.968;2024-03-08T00:54:33;9.43;;;8.00;;
938;SDS011;456;53.584;9.968;2024-03-08T00:56:59;7.73;;;7.10;;
938;SDS011;456;53.584;9.968;2024-03-08T00:59:27;7.57;;;6.97;;
938;SDS011;456;53.584;9.968;2024-03-08T01:01:53;7.60;;;6.90;;
938;SDS011;456;53.584;9.968;2024-03-08T01:04:19;8.67;;;7.83;;
938;SDS011;456;53.584;9.968;2024-03-08T01:06:46;7.97;;;7.27;;
938;SDS011;456;53.584;9.968;2024-03-08T01:09:12;8.77;;;7.87;;
938;SDS011;456;53.584;9.968;2024-03-08T01:11:38;8.40;;;7.70;;
938;SDS011;456;53.584;9.968;2024-03-08T01:14:03;8.13;;;7.43;;
938;SDS011;456;53.584;9.968;2024-03-08T01:16:29;9.03;;;8.07;;
938;SDS011;456;53.584;9.968;2024-03-08T01:18:54;8.90;;;7.93;;
938;SDS011;456;53.584;9.968;2024-03-08T01:21:20;8.40;;;7.53;;
938;SDS011;456;53.584;9.968;2024-03-08T01:23:47;8.03;;;7.27;;
938;SDS011;456;53.584;9.968;2024-03-08T01:26:12;7.87;;;7.13;;
938;SDS011;456;53.584;9.968;2024-03-08T01:28:40;8.67;;;7.87;;
938;SDS011;456;53.584;9.968;2024-03-08T01:31:05;7.83;;;7.17;;
938;SDS011;456;53.584;9.968;2024-03-08T01:33:31;8.20;;;7.40;;
938;SDS011;456;53.584;9.968;2024-03-08T01:35:57;8.10;;;7.30;;
938;SDS011;456;53.584;9.968;2024-03-08T01:38:23;7.90;;;7.10;;
938;SDS011;456;53.584;9.968;2024-03-08T01:40:49;9.80;;;8.80;;
938;SDS011;456;53.584;9.968;2024-03-08T01:45:48;9.23;;;8.37;;
938;SDS011;456;53.584;9.968;2024-03-08T01:48:16;9.53;;;8.30;;
938;SDS011;456;53.584;9.968;2024-03-08T01:50:43;8.87;;;7.87;;
938;SDS011;456;53.584;9.968;2024-03-08T01:53:10;8.03;;;7.33;;
938;SDS011;456;53.584;9.968;2024-03-08T01:55:37;8.57;;;7.63;;
938;SDS011;456;53.584;9.968;2024-03-08T01:58:04;8.00;;;7.30;;
938;SDS011;456;53.584;9.968;2024-03-08T02:00:30;7.97;;;7.17;;
938;SDS011;456;53.584;9.968;2024-03-08T02:02:59;8.90;;;8.10;;
938;SDS011;456;53.584;9.968;2024-03-08T02:05:25;9.93;;;8.43;;
938;SDS011;456;53.584;9.968;2024-03-08T02:07:51;7.87;;;7.10;;
938;SDS011;456;53.584;9.968;2024-03-08T02:10:16;7.20;;;6.60;;
938;SDS011;456;53.584;9.968;2024-03-08T02:12:42;8.50;;;7.23;;
938;SDS011;456;53.584;9.968;2024-03-08T02:15:08;7.77;;;7.00;;
938;SDS011;456;53.584;9.968;2024-03-08T02:17:34;9.10;;;7.13;;
938;SDS011;456;53.584;9.968;2024-03-08T02:19:59;9.23;;;7.30;;
938;SDS011;456;53.584;9.968;2024-03-08T02:22:29;8.27;;;7.23;;
938;SDS011;456;53.584;9.968;2024-03-08T02:24:55;7.30;;;6.60;;
938;SDS011;456;53.584;9.968;2024-03-08T02:27:25;7.80;;;7.00;;
938;SDS011;456;53.584;9.968;2024-03-08T02:29:50;8.30;;;7.60;;
938;SDS011;456;53.584;9.968;2024-03-08T02:32:22;7.83;;;7.13;;
938;SDS011;456;53.584;9.968;2024-03-08T02:34:48;7.90;;;7.20;;
938;SDS011;456;53.584;9.968;2024-03-08T02:37:14;8.07;;;7.27;;
938;SDS011;456;53.584;9.968;2024-03-08T02:39:40;9.17;;;8.37;;
938;SDS011;456;53.584;9.968;2024-03-08T02:42:06;8.90;;;8.00;;
938;SDS011;456;53.584;9.968;2024-03-08T02:44:32;7.93;;;7.23;;
938;SDS011;456;53.584;9.968;2024-03-08T02:46:59;7.50;;;6.80;;
938;SDS011;456;53.584;9.968;2024-03-08T02:49:25;8.10;;;7.30;;
938;SDS011;456;53.584;9.968;2024-03-08T02:51:53;6.93;;;6.33;;
938;SDS011;456;53.584;9.968;2024-03-08T02:54:19;8.83;;;7.93;;
938;SDS011;456;53.584;9.968;2024-03-08T02:56:45;8.20;;;7.40;;
938;SDS011;456;53.584;9.968;2024-03-08T02:59:11;7.77;;;7.03;;
938;SDS011;456;53.584;9.968;2024-03-08T03:01:37;9.53;;;7.43;;
938;SDS011;456;53.584;9.968;2024-03-08T03:04:03;8.00;;;7.20;;
938;SDS011;456;53.584;9.968;2024-03-08T03:06:29;8.47;;;7.23;;
938;SDS011;456;53.584;9.968;2024-03-08T03:08:54;8.57;;;7.80;;
938;SDS011;456;53.584;9.968;2024-03-08T03:11:22;9.33;;;8.43;;
938;SDS011;456;53.584;9.968;2024-03-08T03:13:48;8.33;;;7.57;;
938;SDS011;456;53.584;9.968;2024-03-08T03:16:20;7.77;;;6.40;;
938;SDS011;456;53.584;9.968;2024-03-08T03:18:46;7.67;;;6.87;;
938;SDS011;456;53.584;9.968;2024-03-08T03:21:12;9.13;;;8.23;;
938;SDS011;456;53.584;9.968;2024-03-08T03:23:41;7.30;;;6.67;;
938;SDS011;456;53.584;9.968;2024-03-08T03:26:07;9.60;;;7.63;;
938;SDS011;456;53.584;9.968;2024-03-08T03:28:33;7.10;;;6.40;;
938;SDS011;456;53.584;9.968;2024-03-08T03:30:59;9.50;;;8.60;;
938;SDS011;456;53.584;9.968;2024-03-08T03:33:25;9.40;;;8.30;;
938;SDS011;456;53.584;9.968;2024-03-08T03:35:51;7.63;;;6.93;;
938;SDS011;456;53.584;9.968;2024-03-08T03:38:19;8.43;;;7.40;;
938;SDS011;456;53.584;9.968;2024-03-08T03:40:48;8.33;;;7.53;;
938;SDS011;456;53.584;9.968;2024-03-08T03:43:17;7.90;;;7.10;;
938;SDS011;456;53.584;9.968;2024-03-08T03:45:42;7.57;;;6.87;;
938;SDS011;456;53.584;9.968;2024-03-08T03:48:08;7.70;;;7.00;;
938;SDS011;456;53.584;9.968;2024-03-08T03:50:34;8.03;;;7.33;;
938;SDS011;456;53.584;9.968;2024-03-08T03:53:00;7.30;;;6.60;;
938;SDS011;456;53.584;9.968;2024-03-08T03:55:27;7.03;;;6.33;;
938;SDS011;456;53.584;9.968;2024-03-08T03:57:53;7.80;;;7.10;;
938;SDS011;456;53.584;9.968;2024-03-08T04:00:19;7.80;;;7.00;;
938;SDS011;456;53.584;9.968;2024-03-08T04:02:45;8.57;;;7.77;;
938;SDS011;456;53.584;9.968;2024-03-08T04:05:11;8.53;;;7.43;;
938;SDS011;456;53.584;9.968;2024-03-08T04:07:37;8.17;;;7.37;;
938;SDS011;456;53.584;9.968;2024-03-08T04:10:04;8.23;;;7.50;;
938;SDS011;456;53.584;9.968;2024-03-08T04:12:32;7.97;;;7.17;;
938;SDS011;456;53.584;9.968;2024-03-08T04:14:58;8.33;;;7.50;;
938;SDS011;456;53.584;9.968;2024-03-08T04:17:24;8.07;;;7.27;;
938;SDS011;456;53.584;9.968;2024-03-08T04:19:49;7.77;;;6.97;;
938;SDS011;456;53.584;9.968;2024-03-08T04:22:15;7.70;;;6.77;;
938;SDS011;456;53.584;9.968;2024-03-08T04:24:42;7.70;;;6.90;;
938;SDS011;456;53.584;9.968;2024-03-08T04:27:08;8.63;;;7.93;;
938;SDS011;456;53.584;9.968;2024-03-08T04:29:34;7.83;;;7.03;;
938;SDS011;456;53.584;9.968;2024-03-08T04:31:59;8.73;;;7.80;;
938;SDS011;456;53.584;9.968;2024-03-08T04:34:28;8.77;;;7.90;;
938;SDS011;456;53.584;9.968;2024-03-08T04:36:54;8.10;;;7.40;;
938;SDS011;456;53.584;9.968;2024-03-08T04:39:22;8.43;;;7.43;;
938;SDS011;456;53.584;9.968;2024-03-08T04:41:47;7.90;;;7.10;;
938;SDS011;456;53.584;9.968;2024-03-08T04:44:14;7.83;;;7.10;;
938;SDS011;456;53.584;9.968;2024-03-08T04:46:40;7.70;;;6.93;;
938;SDS011;456;53.584;9.968;2024-03-08T04:49:07;7.93;;;7.13;;
938;SDS011;456;53.584;9.968;2024-03-08T04:51:32;8.43;;;7.73;;
938;SDS011;456;53.584;9.968;2024-03-08T04:53:59;7.83;;;6.93;;
938;SDS011;456;53.584;9.968;2024-03-08T04:56:24;8.30;;;7.50;;
938;SDS011;456;53.584;9.968;2024-03-08T04:58:50;8.40;;;7.60;;
938;SDS011;456;53.584;9.968;2024-03-08T05:01:16;8.63;;;7.40;;
938;SDS011;456;53.584;9.968;2024-03-08T05:03:42;7.90;;;7.20;;
938;SDS011;456;53.584;9.968;2024-03-08T05:06:07;6.80;;;6.20;;
938;SDS011;456;53.584;9.968;2024-03-08T05:08:33;7.80;;;7.00;;
938;SDS011;456;53.584;9.968;2024-03-08T05:10:59;7.10;;;6.40;;
938;SDS011;456;53.584;9.968;2024-03-08T05:13:28;6.97;;;6.37;;
938;SDS011;456;53.584;9.968;2024-03-08T05:15:57;8.53;;;7.43;;
938;SDS011;456;53.584;9.968;2024-03-08T05:18:23;7.90;;;7.00;;
938;SDS011;456;53.584;9.968;2024-03-08T05:20:49;8.00;;;7.20;;
938;SDS011;456;53.584;9.968;2024-03-08T05:23:15;6.80;;;6.20;;
938;SDS011;456;53.584;9.968;2024-03-08T05:25:41;8.27;;;7.57;;
938;SDS011;456;53.584;9.968;2024-03-08T05:28:07;7.33;;;6.67;;
938;SDS011;456;53.584;9.968;2024-03-08T05:30:33;6.83;;;6.13;;
938;SDS011;456;53.584;9.968;2024-03-08T05:33:01;6.60;;;5.90;;
938;SDS011;456;53.584;9.968;2024-03-08T05:35:26;7.37;;;6.67;;
938;SDS011;456;53.584;9.968;2024-03-08T05:37:52;7.13;;;6.43;;
938;SDS011;456;53.584;9.968;2024-03-08T05:40:17;6.77;;;6.17;;
938;SDS011;456;53.584;9.968;2024-03-08T05:42:44;6.90;;;6.20;;
938;SDS011;456;53.584;9.968;2024-03-08T05:45:09;6.63;;;6.03;;
938;SDS011;456;53.584;9.968;2024-03-08T05:47:36;6.97;;;6.33;;
938;SDS011;456;53.584;9.968;2024-03-08T05:50:01;6.83;;;6.20;;
938;SDS011;456;53.584;9.968;2024-03-08T05:52:27;7.47;;;6.77;;
938;SDS011;456;53.584;9.968;2024-03-08T05:54:53;7.37;;;6.67;;
938;SDS011;456;53.584;9.968;2024-03-08T05:57:18;5.87;;;5.37;;
938;SDS011;456;53.584;9.968;2024-03-08T05:59:44;5.97;;;5.43;;
938;SDS011;456;53.584;9.968;2024-03-08T06:02:09;6.60;;;6.00;;
938;SDS011;456;53.584;9.968;2024-03-08T06:04:35;7.20;;;6.50;;
938;SDS011;456;53.584;9.968;2024-03-08T06:07:01;6.27;;;5.67;;
938;SDS011;456;53.584;9.968;2024-03-08T06:09:28;6.50;;;5.83;;
938;SDS011;456;53.584;9.968;2024-03-08T06:11:54;6.50;;;5.90;;
938;SDS011;456;53.584;9.968;2024-03-08T06:14:19;7.60;;;6.00;;
938;SDS011;456;53.584;9.968;2024-03-08T06:16:46;6.30;;;5.70;;
938;SDS011;456;53.584;9.968;2024-03-08T06:19:12;5.60;;;5.10;;
938;SDS011;456;53.584;9.968;2024-03-08T06:21:38;6.30;;;5.70;;
938;SDS011;456;53.584;9.968;2024-03-08T06:24:04;6.00;;;5.50;;
938;SDS011;456;53.584;9.968;2024-03-08T06:26:30;6.33;;;5.83;;
938;SDS011;456;53.584;9.968;2024-03-08T06:28:55;6.30;;;5.70;;
938;SDS011;456;53.584;9.968;2024-03-08T06:31:21;6.43;;;5.67;;
938;SDS011;456;53.584;9.968;2024-03-08T06:33:47;6.40;;;5.80;;
938;SDS011;456;53.584;9.968;2024-03-08T06:36:16;7.00;;;5.27;;
938;SDS011;456;53.584;9.968;2024-03-08T06:38:46;6.47;;;5.87;;
938;SDS011;456;53.584;9.968;2024-03-08T06:41:15;6.97;;;6.23;;
938;SDS011;456;53.584;9.968;2024-03-08T06:43:44;8.53;;;6.80;;
938;SDS011;456;53.584;9.968;2024-03-08T06:46:11;6.17;;;5.57;;
938;SDS011;456;53.584;9.968;2024-03-08T06:48:38;6.27;;;5.63;;
938;SDS011;456;53.584;9.968;2024-03-08T06:51:04;7.33;;;6.37;;
938;SDS011;456;53.584;9.968;2024-03-08T06:53:30;5.73;;;5.13;;
938;SDS011;456;53.584;9.968;2024-03-08T06:55:56;5.50;;;5.00;;
938;SDS011;456;53.584;9.968;2024-03-08T06:58:22;6.53;;;5.93;;
938;SDS011;456;53.584;9.968;2024-03-08T07:00:48;7.40;;;6.70;;
938;SDS011;456;53.584;9.968;2024-03-08T07:03:17;7.23;;;6.63;;
938;SDS011;456;53.584;9.968;2024-03-08T07:05:42;7.53;;;6.87;;
938;SDS011;456;53.584;9.968;2024-03-08T07:08:08;7.57;;;6.50;;
938;SDS011;456;53.584;9.968;2024-03-08T07:10:34;7.60;;;6.50;;
938;SDS011;456;53.584;9.968;2024-03-08T07:13:00;7.43;;;6.80;;
938;SDS011;456;53.584;9.968;2024-03-08T07:15:29;7.83;;;6.03;;
938;SDS011;456;53.584;9.968;2024-03-08T07:17:54;7.10;;;6.23;;
938;SDS011;456;53.584;9.968;2024-03-08T07:20:20;7.20;;;6.60;;
938;SDS011;456;53.584;9.968;2024-03-08T07:22:46;7.43;;;6.50;;
938;SDS011;456;53.584;9.968;2024-03-08T07:25:12;8.13;;;6.57;;
938;SDS011;456;53.584;9.968;2024-03-08T07:27:48;7.40;;;6.80;;
938;SDS011;456;53.584;9.968;2024-03-08T07:30:15;7.10;;;6.50;;
938;SDS011;456;53.584;9.968;2024-03-08T07:32:59;6.27;;;5.70;;
938;SDS011;456;53.584;9.968;2024-03-08T07:35:27;6.93;;;6.10;;
938;SDS011;456;53.584;9.968;2024-03-08T07:37:56;7.10;;;6.40;;
938;SDS011;456;53.584;9.968;2024-03-08T07:40:22;7.37;;;6.50;;
938;SDS011;456;53.584;9.968;2024-03-08T07:42:48;6.20;;;5.67;;
938;SDS011;456;53.584;9.968;2024-03-08T07:45:14;7.87;;;6.80;;
938;SDS011;456;53.584;9.968;2024-03-08T07:47:41;6.77;;;6.27;;
938;SDS011;456;53.584;9.968;2024-03-08T07:50:07;8.03;;;7.30;;
938;SDS011;456;53.584;9.968;2024-03-08T07:52:36;6.97;;;6.27;;
938;SDS011;456;53.584;9.968;2024-03-08T07:55:02;6.97;;;6.37;;
938;SDS011;456;53.584;9.968;2024-03-08T07:57:28;7.70;;;7.00;;
938;SDS011;456;53.584;9.968;2024-03-08T07:59:54;7.40;;;6.70;;
938;SDS011;456;53.584;9.968;2024-03-08T08:02:20;6.20;;;5.63;;
938;SDS011;456;53.584;9.968;2024-03-08T08:04:46;6.70;;;6.07;;
938;SDS011;456;53.584;9.968;2024-03-08T08:07:11;6.80;;;6.10;;
938;SDS011;456;53.584;9.968;2024-03-08T08:09:37;7.90;;;6.50;;
938;SDS011;456;53.584;9.968;2024-03-08T08:12:02;6.50;;;6.00;;
938;SDS011;456;53.584;9.968;2024-03-08T08:14:29;7.20;;;6.50;;
938;SDS011;456;53.584;9.968;2024-03-08T08:16:55;6.73;;;6.03;;
938;SDS011;456;53.584;9.968;2024-03-08T08:19:22;6.90;;;6.30;;
938;SDS011;456;53.584;9.968;2024-03-08T08:21:48;6.67;;;6.07;;
938;SDS011;456;53.584;9.968;2024-03-08T08:24:14;6.70;;;6.10;;
938;SDS011;456;53.584;9.968;2024-03-08T08:26:40;7.70;;;6.87;;
938;SDS011;456;53.584;9.968;2024-03-08T08:29:06;6.40;;;5.90;;
938;SDS011;456;53.584;9.968;2024-03-08T08:31:32;7.20;;;6.60;;
938;SDS011;456;53.584;9.968;2024-03-08T08:33:58;7.03;;;6.40;;
938;SDS011;456;53.584;9.968;2024-03-08T08:36:24;6.70;;;6.10;;
938;SDS011;456;53.584;9.968;2024-03-08T08:38:50;6.30;;;5.67;;
938;SDS011;456;53.584;9.968;2024-03-08T08:41:18;6.23;;;5.73;;
938;SDS011;456;53.584;9.968;2024-03-08T08:43:44;7.30;;;6.60;;
938;SDS011;456;53.584;9.968;2024-03-08T08:46:10;6.97;;;6.37;;
938;SDS011;456;53.584;9.968;2024-03-08T08:48:39;6.07;;;5.47;;
938;SDS011;456;53.584;9.968;2024-03-08T08:51:13;6.73;;;6.13;;
938;SDS011;456;53.584;9.968;2024-03-08T08:53:40;6.63;;;6.03;;
938;SDS011;456;53.584;9.968;2024-03-08T08:56:11;6.87;;;6.37;;
938;SDS011;456;53.584;9.968;2024-03-08T08:58:40;6.50;;;5.77;;
938;SDS011;456;53.584;9.968;2024-03-08T09:01:07;6.23;;;5.73;;
938;SDS011;456;53.584;9.968;2024-03-08T09:03:34;7.37;;;6.60;;
938;SDS011;456;53.584;9.968;2024-03-08T09:06:01;6.70;;;6.10;;
938;SDS011;456;53.584;9.968;2024-03-08T09:08:30;6.77;;;6.10;;
938;SDS011;456;53.584;9.968;2024-03-08T09:10:56;7.63;;;6.87;;
938;SDS011;456;53.584;9.968;2024-03-08T09:13:21;7.07;;;6.47;;
938;SDS011;456;53.584;9.968;2024-03-08T09:15:48;7.40;;;6.70;;
938;SDS011;456;53.584;9.968;2024-03-08T09:18:13;7.00;;;6.07;;
938;SDS011;456;53.584;9.968;2024-03-08T09:20:39;6.57;;;5.90;;
938;SDS011;456;53.584;9.968;2024-03-08T09:23:06;6.33;;;5.73;;
938;SDS011;456;53.584;9.968;2024-03-08T09:25:33;7.03;;;6.40;;
938;SDS011;456;53.584;9.968;2024-03-08T09:27:58;6.50;;;5.90;;
938;SDS011;456;53.584;9.968;2024-03-08T09:30:24;8.00;;;6.70;;
938;SDS011;456;53.584;9.968;2024-03-08T09:32:50;6.33;;;5.83;;
938;SDS011;456;53.584;9.968;2024-03-08T09:35:16;7.03;;;6.43;;
938;SDS011;456;53.584;9.968;2024-03-08T09:37:42;7.33;;;6.63;;
938;SDS011;456;53.584;9.968;2024-03-08T09:40:07;7.60;;;6.90;;
938;SDS011;456;53.584;9.968;2024-03-08T09:42:40;7.30;;;6.50;;
938;SDS011;456;53.584;9.968;2024-03-08T09:45:10;6.30;;;5.80;;
938;SDS011;456;53.584;9.968;2024-03-08T09:47:40;7.20;;;6.47;;
938;SDS011;456;53.584;9.968;2024-03-08T09:50:07;7.40;;;6.67;;
938;SDS011;456;53.584;9.968;2024-03-08T09:52:38;8.03;;;6.50;;
938;SDS011;456;53.584;9.968;2024-03-08T09:55:05;7.07;;;6.47;;
938;SDS011;456;53.584;9.968;2024-03-08T09:57:32;7.70;;;6.87;;
938;SDS011;456;53.584;9.968;2024-03-08T09:59:58;6.57;;;5.93;;
938;SDS011;456;53.584;9.968;2024-03-08T10:02:24;7.00;;;6.30;;
938;SDS011;456;53.584;9.968;2024-03-08T10:04:51;8.00;;;7.10;;
938;SDS011;456;53.584;9.968;2024-03-08T10:07:18;6.80;;;6.20;;
938;SDS011;456;53.584;9.968;2024-03-08T10:09:44;7.67;;;6.90;;
938;SDS011;456;53.584;9.968;2024-03-08T10:12:15;7.60;;;6.90;;
938;SDS011;456;53.584;9.968;2024-03-08T10:14:44;6.53;;;5.93;;
938;SDS011;456;53.584;9.968;2024-03-08T10:17:11;6.90;;;6.20;;
938;SDS011;456;53.584;9.968;2024-03-08T10:19:37;7.70;;;7.00;;
938;SDS011;456;53.584;9.968;2024-03-08T10:22:03;7.03;;;5.87;;
938;SDS011;456;53.584;9.968;2024-03-08T10:24:30;7.53;;;6.70;;
938;SDS011;456;53.584;9.968;2024-03-08T10:26:59;7.23;;;6.53;;
938;SDS011;456;53.584;9.968;2024-03-08T10:29:26;7.60;;;6.83;;
938;SDS011;456;53.584;9.968;2024-03-08T10:31:53;7.53;;;6.83;;
938;SDS011;456;53.584;9.968;2024-03-08T10:34:20;6.50;;;5.97;;
938;SDS011;456;53.584;9.968;2024-03-08T10:36:48;6.70;;;6.10;;
938;SDS011;456;53.584;9.968;2024-03-08T10:39:22;6.53;;;5.93;;
938;SDS011;456;53.584;9.968;2024-03-08T10:41:52;7.40;;;6.70;;
938;SDS011;456;53.584;9.968;2024-03-08T10:47:03;8.33;;;7.53;;
938;SDS011;456;53.584;9.968;2024-03-08T10:49:38;6.70;;;6.10;;
938;SDS011;456;53.584;9.968;2024-03-08T10:52:09;6.70;;;6.20;;
938;SDS011;456;53.584;9.968;2024-03-08T10:54:38;6.63;;;6.03;;
938;SDS011;456;53.584;9.968;2024-03-08T10:57:06;8.57;;;6.57;;
938;SDS011;456;53.584;9.968;2024-03-08T10:59:33;6.87;;;6.27;;
938;SDS011;456;53.584;9.968;2024-03-08T11:02:00;7.73;;;6.93;;
938;SDS011;456;53.584;9.968;2024-03-08T11:04:26;6.90;;;6.30;;
938;SDS011;456;53.584;9.968;2024-03-08T11:06:54;7.60;;;6.83;;
938;SDS011;456;53.584;9.968;2024-03-08T11:14:55;7.60;;;6.90;;
938;SDS011;456;53.584;9.968;2024-03-08T11:17:40;8.03;;;7.23;;
938;SDS011;456;53.584;9.968;2024-03-08T11:22:40;7.60;;;6.90;;
938;SDS011;456;53.584;9.968;2024-03-08T11:25:30;8.10;;;7.30;;
938;SDS011;456;53.584;9.968;2024-03-08T11:28:11;7.73;;;7.13;;
938;SDS011;456;53.584;9.968;2024-03-08T11:30:43;8.67;;;7.90;;
938;SDS011;456;53.584;9.968;2024-03-08T11:33:34;8.50;;;7.37;;
938;SDS011;456;53.584;9.968;2024-03-08T11:39:00;9.37;;;8.47;;
938;SDS011;456;53.584;9.968;2024-03-08T11:41:34;8.50;;;7.23;;
938;SDS011;456;53.584;9.968;2024-03-08T11:44:03;8.63;;;7.83;;
938;SDS011;456;53.584;9.968;2024-03-08T11:46:30;8.40;;;7.67;;
938;SDS011;456;53.584;9.968;2024-03-08T11:48:56;8.80;;;8.00;;
938;SDS011;456;53.584;9.968;2024-03-08T11:51:21;9.20;;;8.30;;
938;SDS011;456;53.584;9.968;2024-03-08T11:53:48;8.33;;;7.53;;
938;SDS011;456;53.584;9.968;2024-03-08T11:56:15;8.80;;;7.90;;
938;SDS011;456;53.584;9.968;2024-03-08T11:58:41;8.47;;;7.67;;
938;SDS011;456;53.584;9.968;2024-03-08T12:01:17;8.13;;;7.33;;
938;SDS011;456;53.584;9.968;2024-03-08T12:03:43;8.93;;;7.97;;
938;SDS011;456;53.584;9.968;2024-03-08T12:06:08;8.33;;;7.43;;
938;SDS011;456;53.584;9.968;2024-03-08T12:08:38;8.10;;;7.40;;
938;SDS011;456;53.584;9.968;2024-03-08T12:11:04;7.63;;;6.93;;
938;SDS011;456;53.584;9.968;2024-03-08T12:13:31;7.30;;;6.60;;
938;SDS011;456;53.584;9.968;2024-03-08T12:15:59;7.73;;;7.07;;
938;SDS011;456;53.584;9.968;2024-03-08T12:18:34;8.50;;;7.70;;
938;SDS011;456;53.584;9.968;2024-03-08T12:21:06;8.70;;;7.90;;
938;SDS011;456;53.584;9.968;2024-03-08T12:23:33;7.70;;;7.00;;
938;SDS011;456;53.584;9.968;2024-03-08T12:26:10;8.07;;;7.27;;
938;SDS011;456;53.584;9.968;2024-03-08T12:28:40;9.87;;;6.53;;
938;SDS011;456;53.584;9.968;2024-03-08T12:31:08;7.17;;;6.47;;
938;SDS011;456;53.584;9.968;2024-03-08T12:33:35;7.53;;;6.60;;
938;SDS011;456;53.584;9.968;2024-03-08T12:36:02;8.30;;;7.50;;
938;SDS011;456;53.584;9.968;2024-03-08T12:38:32;7.40;;;6.70;;
938;SDS011;456;53.584;9.968;2024-03-08T12:40:58;7.67;;;6.97;;
938;SDS011;456;53.584;9.968;2024-03-08T12:43:24;8.60;;;7.90;;
938;SDS011;456;53.584;9.968;2024-03-08T12:45:49;6.90;;;6.23;;
938;SDS011;456;53.584;9.968;2024-03-08T12:48:16;7.87;;;7.07;;
938;SDS011;456;53.584;9.968;2024-03-08T12:50:42;7.40;;;6.57;;
938;SDS011;456;53.584;9.968;2024-03-08T12:53:12;7.93;;;7.23;;
938;SDS011;456;53.584;9.968;2024-03-08T12:55:38;8.40;;;7.60;;
938;SDS011;456;53.584;9.968;2024-03-08T12:58:05;8.23;;;7.50;;
938;SDS011;456;53.584;9.968;2024-03-08T13:00:32;8.40;;;7.47;;
938;SDS011;456;53.584;9.968;2024-03-08T13:03:01;7.80;;;7.10;;
938;SDS011;456;53.584;9.968;2024-03-08T13:05:27;7.73;;;7.03;;
938;SDS011;456;53.584;9.968;2024-03-08T13:07:53;8.00;;;7.20;;
938;SDS011;456;53.584;9.968;2024-03-08T13:10:20;7.77;;;7.00;;
938;SDS011;456;53.584;9.968;2024-03-08T13:12:45;7.80;;;7.10;;
938;SDS011;456;53.584;9.968;2024-03-08T13:15:11;8.00;;;7.20;;
938;SDS011;456;53.584;9.968;2024-03-08T13:17:44;12.60;;;7.50;;
938;SDS011;456;53.584;9.968;2024-03-08T13:20:13;8.40;;;7.60;;
938;SDS011;456;53.584;9.968;2024-03-08T13:22:44;9.03;;;8.13;;
938;SDS011;456;53.584;9.968;2024-03-08T13:25:11;7.87;;;7.13;;
938;SDS011;456;53.584;9.968;2024-03-08T13:27:40;7.37;;;6.70;;
938;SDS011;456;53.584;9.968;2024-03-08T13:30:07;8.03;;;7.30;;
938;SDS011;456;53.584;9.968;2024-03-08T13:32:38;7.60;;;6.90;;
938;SDS011;456;53.584;9.968;2024-03-08T13:35:04;7.90;;;7.10;;
938;SDS011;456;53.584;9.968;2024-03-08T13:37:37;8.20;;;7.40;;
938;SDS011;456;53.584;9.968;2024-03-08T13:40:04;7.10;;;6.43;;
938;SDS011;456;53.584;9.968;2024-03-08T13:42:30;7.13;;;6.43;;
938;SDS011;456;53.584;9.968;2024-03-08T13:44:56;7.83;;;7.13;;
938;SDS011;456;53.584;9.968;2024-03-08T13:47:22;8.00;;;7.20;;
938;SDS011;456;53.584;9.968;2024-03-08T13:49:49;8.00;;;6.57;;
938;SDS011;456;53.584;9.968;2024-03-08T13:52:15;8.67;;;7.03;;
938;SDS011;456;53.584;9.968;2024-03-08T13:54:41;8.33;;;7.53;;
938;SDS011;456;53.584;9.968;2024-03-08T13:57:07;7.63;;;6.90;;
938;SDS011;456;53.584;9.968;2024-03-08T13:59:36;8.10;;;7.30;;
938;SDS011;456;53.584;9.968;2024-03-08T14:02:03;8.33;;;7.60;;
938;SDS011;456;53.584;9.968;2024-03-08T14:04:29;7.57;;;6.87;;
938;SDS011;456;53.584;9.968;2024-03-08T14:06:55;7.10;;;6.40;;
938;SDS011;456;53.584;9.968;2024-03-08T14:09:24;7.77;;;7.07;;
938;SDS011;456;53.584;9.968;2024-03-08T14:11:50;7.87;;;7.07;;
938;SDS011;456;53.584;9.968;2024-03-08T14:14:20;8.60;;;7.63;;
938;SDS011;456;53.584;9.968;2024-03-08T14:16:48;7.80;;;6.50;;
938;SDS011;456;53.584;9.968;2024-03-08T14:19:14;6.97;;;6.33;;
938;SDS011;456;53.584;9.968;2024-03-08T14:21:40;7.43;;;6.73;;
938;SDS011;456;53.584;9.968;2024-03-08T14:24:07;8.50;;;6.90;;
938;SDS011;456;53.584;9.968;2024-03-08T14:26:32;7.70;;;6.73;;
938;SDS011;456;53.584;9.968;2024-03-08T14:28:59;6.57;;;5.80;;
938;SDS011;456;53.584;9.968;2024-03-08T14:31:24;7.37;;;6.70;;
938;SDS011;456;53.584;9.968;2024-03-08T14:33:51;7.70;;;6.17;;
938;SDS011;456;53.584;9.968;2024-03-08T14:36:17;6.43;;;5.77;;
938;SDS011;456;53.584;9.968;2024-03-08T14:38:44;7.23;;;6.53;;
938;SDS011;456;53.584;9.968;2024-03-08T14:41:12;6.83;;;6.17;;
938;SDS011;456;53.584;9.968;2024-03-08T14:43:41;6.40;;;5.87;;
938;SDS011;456;53.584;9.968;2024-03-08T14:46:09;6.77;;;6.17;;
938;SDS011;456;53.584;9.968;2024-03-08T14:48:42;6.83;;;6.20;;
938;SDS011;456;53.584;9.968;2024-03-08T14:51:10;6.30;;;5.80;;
938;SDS011;456;53.584;9.968;2024-03-08T14:53:39;6.77;;;6.07;;
938;SDS011;456;53.584;9.968;2024-03-08T14:56:06;6.80;;;6.07;;
938;SDS011;456;53.584;9.968;2024-03-08T14:58:33;7.83;;;6.13;;
938;SDS011;456;53.584;9.968;2024-03-08T15:00:59;7.13;;;6.10;;
938;SDS011;456;53.584;9.968;2024-03-08T15:03:26;7.00;;;5.90;;
938;SDS011;456;53.584;9.968;2024-03-08T15:05:53;8.17;;;7.03;;
938;SDS011;456;53.584;9.968;2024-03-08T15:08:20;7.60;;;6.30;;
938;SDS011;456;53.584;9.968;2024-03-08T15:10:49;9.67;;;6.00;;
938;SDS011;456;53.584;9.968;2024-03-08T15:13:19;6.87;;;5.53;;
938;SDS011;456;53.584;9.968;2024-03-08T15:15:52;6.30;;;5.70;;
938;SDS011;456;53.584;9.968;2024-03-08T15:18:24;6.93;;;5.53;;
938;SDS011;456;53.584;9.968;2024-03-08T15:20:59;7.30;;;5.93;;
938;SDS011;456;53.584;9.968;2024-03-08T15:23:31;7.77;;;5.87;;
938;SDS011;456;53.584;9.968;2024-03-08T15:25:58;7.17;;;6.43;;
938;SDS011;456;53.584;9.968;2024-03-08T15:28:24;7.67;;;5.77;;
938;SDS011;456;53.584;9.968;2024-03-08T15:30:58;7.07;;;5.63;;
938;SDS011;456;53.584;9.968;2024-03-08T15:33:30;7.00;;;6.00;;
938;SDS011;456;53.584;9.968;2024-03-08T15:35:56;6.83;;;5.30;;
938;SDS011;456;53.584;9.968;2024-03-08T15:38:28;8.27;;;5.60;;
938;SDS011;456;53.584;9.968;2024-03-08T15:40:54;7.17;;;5.30;;
938;SDS011;456;53.584;9.968;2024-03-08T15:43:21;6.10;;;5.50;;
938;SDS011;456;53.584;9.968;2024-03-08T15:45:47;5.83;;;5.27;;
938;SDS011;456;53.584;9.968;2024-03-08T15:48:13;9.27;;;5.50;;
938;SDS011;456;53.584;9.968;2024-03-08T15:50:39;6.30;;;5.70;;
938;SDS011;456;53.584;9.968;2024-03-08T15:53:05;7.57;;;5.67;;
938;SDS011;456;53.584;9.968;2024-03-08T15:55:31;7.00;;;5.83;;
938;SDS011;456;53.584;9.968;2024-03-08T15:57:57;6.37;;;5.73;;
938;SDS011;456;53.584;9.968;2024-03-08T16:00:25;6.50;;;5.40;;